Time;durP1;ratioP1;P1;durP2;ratioP2;P2;SDS_P1;SDS_P2;PMS_P1;PMS_P2;Temp;Humidity;BMP_temperature;BMP_pressure;BME280_temperature;BME280_humidity;BME280_pressure;Samples;Min_cycle;Max_cycle;Signal;HPM_P1;HPM_P2
2023/09/23 00:01:37;;;;;;;1.23;0.80;;;25.30;79.50;;;;;;5095650;28;20502;-87
2023/09/23 00:04:05;;;;;;;1.10;0.80;;;25.30;79.40;;;;;;5095660;28;20432;-87
2023/09/23 00:06:32;;;;;;;1.10;0.90;;;25.30;79.30;;;;;;5095691;28;20515;-87
2023/09/23 00:09:00;;;;;;;1.10;0.80;;;25.30;79.60;;;;;;5095502;28;20519;-87
2023/09/23 00:11:27;;;;;;;1.10;0.90;;;25.30;80.40;;;;;;5095472;28;20432;-87
2023/09/23 00:13:53;;;;;;;1.10;1.00;;;25.30;79.30;;;;;;5095459;28;20469;-87
2023/09/23 00:16:21;;;;;;;1.10;0.70;;;25.30;79.40;;;;;;5095507;28;20457;-87
2023/09/23 00:18:48;;;;;;;1.00;0.80;;;25.30;79.40;;;;;;5095089;28;20463;-87
2023/09/23 00:21:16;;;;;;;1.10;0.90;;;25.30;79.40;;;;;;5095244;28;20442;-87
2023/09/23 00:23:45;;;;;;;1.10;0.80;;;25.30;79.30;;;;;;5095314;28;20435;-87
2023/09/23 00:26:17;;;;;;;1.20;0.90;;;25.30;79.50;;;;;;5095137;28;20440;-87
2023/09/23 00:28:45;;;;;;;1.07;0.83;;;25.30;79.40;;;;;;5095261;28;20436;-87
2023/09/23 00:31:14;;;;;;;1.77;1.07;;;25.30;79.30;;;;;;5095189;28;20516;-87
2023/09/23 00:33:41;;;;;;;1.20;0.97;;;25.30;79.30;;;;;;5095210;28;20446;-87
2023/09/23 00:36:09;;;;;;;1.20;0.90;;;25.30;79.30;;;;;;5095052;28;20485;-87
2023/09/23 00:38:38;;;;;;;1.43;0.90;;;25.30;79.30;;;;;;5094862;28;20870;-87
2023/09/23 00:41:06;;;;;;;1.63;1.30;;;25.30;79.30;;;;;;5095037;28;20436;-86
2023/09/23 00:43:33;;;;;;;1.20;0.90;;;25.30;79.30;;;;;;5094811;28;20479;-87
2023/09/23 00:46:01;;;;;;;1.03;0.80;;;25.20;79.40;;;;;;5094891;28;20945;-87
2023/09/23 00:48:31;;;;;;;1.00;0.77;;;25.20;79.20;;;;;;5094662;28;20440;-87
2023/09/23 00:50:59;;;;;;;1.00;0.80;;;25.20;79.10;;;;;;5094846;28;20442;-87
2023/09/23 00:53:25;;;;;;;1.00;0.70;;;25.20;79.60;;;;;;5094581;28;20887;-87
2023/09/23 00:55:55;;;;;;;2.17;0.97;;;25.20;79.20;;;;;;5094617;28;20526;-87
2023/09/23 00:58:22;;;;;;;1.00;0.80;;;25.20;79.20;;;;;;5094406;28;20435;-86
2023/09/23 01:00:51;;;;;;;1.10;0.90;;;25.20;79.10;;;;;;5094499;28;20431;-87
2023/09/23 01:03:19;;;;;;;1.20;0.80;;;25.20;79.20;;;;;;5093891;28;20812;-87
2023/09/23 01:05:46;;;;;;;1.00;0.80;;;25.20;79.30;;;;;;5094507;28;20918;-87
2023/09/23 01:08:25;;;;;;;1.17;1.03;;;25.20;79.20;;;;;;5094418;28;20514;-87
2023/09/23 01:10:53;;;;;;;1.73;1.10;;;25.20;79.20;;;;;;5094365;28;20945;-87
2023/09/23 01:13:23;;;;;;;1.10;0.90;;;25.20;79.10;;;;;;5094359;28;20431;-87
2023/09/23 01:15:51;;;;;;;1.07;0.83;;;25.20;79.20;;;;;;5094306;28;20436;-87
2023/09/23 01:18:18;;;;;;;1.20;1.10;;;25.20;79.10;;;;;;5094004;28;20975;-87
2023/09/23 01:20:48;;;;;;;1.30;0.83;;;25.20;78.90;;;;;;5094211;28;20438;-87
2023/09/23 01:23:16;;;;;;;1.20;0.90;;;25.20;78.90;;;;;;5094013;28;20883;-87
2023/09/23 01:25:43;;;;;;;1.20;0.90;;;25.20;78.90;;;;;;5094080;28;20440;-87
2023/09/23 01:28:12;;;;;;;1.00;0.80;;;25.20;79.10;;;;;;5093962;28;20808;-87
2023/09/23 01:30:40;;;;;;;1.10;0.90;;;25.20;79.00;;;;;;5093965;28;20522;-87
2023/09/23 01:33:08;;;;;;;1.70;1.30;;;25.20;79.00;;;;;;5094057;28;20436;-87
2023/09/23 01:35:35;;;;;;;1.10;0.90;;;25.20;78.90;;;;;;5094043;28;20552;-87
2023/09/23 01:38:03;;;;;;;1.10;0.93;;;25.20;78.80;;;;;;5093890;28;20798;-87
2023/09/23 01:40:32;;;;;;;1.20;0.97;;;25.20;78.90;;;;;;5093831;28;20432;-87
2023/09/23 01:43:00;;;;;;;1.10;0.90;;;25.20;78.80;;;;;;5093779;28;20483;-87
2023/09/23 01:45:27;;;;;;;1.50;1.00;;;25.20;78.80;;;;;;5093719;28;20527;-87
2023/09/23 01:47:56;;;;;;;1.10;0.90;;;25.20;78.70;;;;;;5093645;28;20471;-87
2023/09/23 01:50:24;;;;;;;1.10;1.00;;;25.20;78.90;;;;;;5093727;28;20957;-87
2023/09/23 01:52:51;;;;;;;1.43;0.90;;;25.20;78.70;;;;;;5093797;28;20496;-87
2023/09/23 01:55:18;;;;;;;1.00;0.70;;;25.20;78.80;;;;;;5093602;28;20838;-87
2023/09/23 01:57:47;;;;;;;1.10;0.80;;;25.20;78.70;;;;;;5093498;28;20438;-87
2023/09/23 02:00:17;;;;;;;2.33;1.07;;;25.20;78.90;;;;;;5093530;28;20543;-87
2023/09/23 02:02:44;;;;;;;1.10;0.80;;;25.20;78.70;;;;;;5093296;28;20475;-87
2023/09/23 02:05:11;;;;;;;1.40;1.00;;;25.20;78.90;;;;;;5093559;28;20859;-87
2023/09/23 02:07:39;;;;;;;1.30;0.90;;;25.10;78.70;;;;;;5093478;28;20435;-87
2023/09/23 02:10:09;;;;;;;1.10;0.70;;;25.10;78.70;;;;;;5093600;28;20567;-87
2023/09/23 02:12:36;;;;;;;1.27;0.97;;;25.20;78.90;;;;;;5093467;28;20435;-87
2023/09/23 02:15:06;;;;;;;1.10;0.90;;;25.10;78.70;;;;;;5093204;28;20434;-87
2023/09/23 02:17:36;;;;;;;1.07;0.87;;;25.20;78.90;;;;;;5093031;28;20441;-87
2023/09/23 02:20:09;;;;;;;1.00;0.70;;;25.20;78.80;;;;;;5093146;28;20895;-87
2023/09/23 02:22:37;;;;;;;1.07;0.93;;;25.10;78.60;;;;;;5093453;28;20479;-87
2023/09/23 02:25:07;;;;;;;1.20;1.00;;;25.10;78.80;;;;;;5093208;28;20435;-87
2023/09/23 02:27:34;;;;;;;1.20;1.00;;;25.10;78.90;;;;;;5093515;28;20464;-87
2023/09/23 02:30:03;;;;;;;1.30;1.00;;;25.10;79.60;;;;;;5093127;28;20440;-87
2023/09/23 02:32:31;;;;;;;1.10;0.90;;;25.10;79.60;;;;;;5093104;28;20459;-87
2023/09/23 02:34:58;;;;;;;1.10;0.80;;;25.10;78.80;;;;;;5093205;28;20446;-87
2023/09/23 02:37:26;;;;;;;1.10;0.90;;;25.10;78.90;;;;;;5092976;28;20436;-87
2023/09/23 02:39:53;;;;;;;1.20;0.90;;;25.10;79.00;;;;;;5093396;28;20435;-87
2023/09/23 02:42:21;;;;;;;1.00;0.90;;;25.10;78.80;;;;;;5093023;28;20562;-87
2023/09/23 02:44:48;;;;;;;1.00;0.90;;;25.10;78.80;;;;;;5093116;28;20436;-87
2023/09/23 02:47:16;;;;;;;1.10;0.90;;;25.10;78.90;;;;;;5093087;28;20439;-87
2023/09/23 02:49:45;;;;;;;1.10;0.80;;;25.10;79.10;;;;;;5092961;28;20528;-87
2023/09/23 02:52:12;;;;;;;1.07;0.87;;;25.10;79.00;;;;;;5092969;28;20439;-87
2023/09/23 02:54:39;;;;;;;1.10;1.00;;;25.00;78.80;;;;;;5093035;28;20443;-86
2023/09/23 02:57:12;;;;;;;1.73;1.10;;;25.10;78.80;;;;;;5092973;28;20431;-87
2023/09/23 02:59:41;;;;;;;2.33;1.00;;;25.10;78.80;;;;;;5092969;28;20485;-87
2023/09/23 03:02:09;;;;;;;1.60;1.00;;;25.10;78.70;;;;;;5092734;28;20466;-86
2023/09/23 03:04:36;;;;;;;1.10;0.90;;;25.10;78.80;;;;;;5092930;28;20436;-87
2023/09/23 03:07:06;;;;;;;1.03;0.80;;;25.10;78.70;;;;;;5092941;28;20432;-87
2023/09/23 03:09:34;;;;;;;1.10;0.80;;;25.00;78.80;;;;;;5092807;28;20435;-87
2023/09/23 03:12:01;;;;;;;1.10;0.90;;;25.00;78.70;;;;;;5092754;28;20962;-87
2023/09/23 03:14:36;;;;;;;1.00;0.80;;;25.00;78.60;;;;;;5092747;28;20447;-87
2023/09/23 03:17:04;;;;;;;1.27;1.00;;;25.00;78.70;;;;;;5092706;28;20430;-87
2023/09/23 03:19:32;;;;;;;1.60;1.10;;;25.00;78.70;;;;;;5092563;28;20509;-87
2023/09/23 03:22:00;;;;;;;1.00;0.80;;;25.00;78.60;;;;;;5092693;28;20436;-86
2023/09/23 03:24:29;;;;;;;1.30;0.87;;;25.00;78.70;;;;;;5092697;28;20487;-87
2023/09/23 03:26:59;;;;;;;1.30;0.90;;;25.00;78.80;;;;;;5094285;28;20438;-87
2023/09/23 03:29:28;;;;;;;1.10;0.90;;;25.00;78.80;;;;;;5096415;28;20431;-87
2023/09/23 03:31:55;;;;;;;1.37;1.20;;;25.00;78.80;;;;;;5096353;28;20451;-87
2023/09/23 03:34:23;;;;;;;1.27;1.07;;;25.00;78.90;;;;;;5096253;28;20474;-87
2023/09/23 03:36:51;;;;;;;1.20;1.07;;;25.00;78.70;;;;;;5096139;28;20446;-87
2023/09/23 03:39:19;;;;;;;1.10;0.83;;;25.00;78.60;;;;;;5096098;28;20439;-87
2023/09/23 03:41:47;;;;;;;1.10;0.90;;;25.00;78.70;;;;;;5096130;28;20436;-87
2023/09/23 03:44:15;;;;;;;1.30;0.90;;;25.00;78.80;;;;;;5096049;28;20905;-87
2023/09/23 03:46:43;;;;;;;1.20;0.90;;;25.00;78.90;;;;;;5096123;28;20435;-87
2023/09/23 03:49:10;;;;;;;1.10;0.87;;;25.00;78.70;;;;;;5096086;28;20465;-87
2023/09/23 03:51:37;;;;;;;1.27;0.90;;;25.00;78.70;;;;;;5095888;28;20792;-87
2023/09/23 03:54:05;;;;;;;1.50;0.80;;;25.00;78.70;;;;;;5095860;28;20443;-87
2023/09/23 03:56:33;;;;;;;1.13;1.00;;;25.00;78.80;;;;;;5095749;28;20439;-87
2023/09/23 03:59:05;;;;;;;1.97;0.97;;;25.00;78.80;;;;;;5095817;28;20436;-87
2023/09/23 04:01:32;;;;;;;1.53;1.00;;;25.00;78.70;;;;;;5095786;28;20817;-87
2023/09/23 04:04:01;;;;;;;1.13;0.90;;;25.00;78.80;;;;;;5095613;28;21046;-87
2023/09/23 04:06:28;;;;;;;1.10;0.90;;;25.00;78.90;;;;;;5095670;28;20443;-87
2023/09/23 04:08:58;;;;;;;1.13;0.90;;;25.00;78.70;;;;;;5095576;28;20527;-87
2023/09/23 04:11:26;;;;;;;1.20;1.00;;;25.00;78.60;;;;;;5095978;28;20471;-87
2023/09/23 04:13:53;;;;;;;1.10;0.90;;;25.00;78.60;;;;;;5095498;28;20930;-87
2023/09/23 04:16:21;;;;;;;1.03;0.90;;;25.00;78.70;;;;;;5095443;28;20783;-86
2023/09/23 04:18:51;;;;;;;1.10;0.80;;;25.00;78.70;;;;;;5095207;28;20503;-87
2023/09/23 04:21:20;;;;;;;1.00;0.80;;;25.00;78.70;;;;;;5095422;28;20528;-87
2023/09/23 04:23:48;;;;;;;1.27;0.93;;;25.00;78.70;;;;;;5095258;28;20487;-87
2023/09/23 04:26:15;;;;;;;1.73;1.03;;;24.90;79.50;;;;;;5095275;28;20458;-87
2023/09/23 04:28:43;;;;;;;1.10;0.90;;;24.90;78.60;;;;;;5095215;28;20436;-87
2023/09/23 04:31:13;;;;;;;1.03;0.90;;;24.90;78.60;;;;;;5095011;28;20495;-87
2023/09/23 04:33:41;;;;;;;1.00;0.90;;;24.90;78.60;;;;;;5095162;28;20919;-87
2023/09/23 04:36:10;;;;;;;1.20;1.03;;;24.90;78.60;;;;;;5094982;28;20443;-87
2023/09/23 04:38:37;;;;;;;1.20;0.90;;;24.90;78.60;;;;;;5094984;28;20439;-87
2023/09/23 04:41:05;;;;;;;1.47;1.10;;;24.90;78.60;;;;;;5095065;28;20952;-87
2023/09/23 04:43:33;;;;;;;1.43;0.80;;;24.90;78.60;;;;;;5094830;28;20511;-87
2023/09/23 04:46:00;;;;;;;1.20;0.80;;;24.90;78.50;;;;;;5094817;28;20448;-86
2023/09/23 04:48:30;;;;;;;1.40;0.90;;;24.90;78.50;;;;;;5094717;28;20493;-87
2023/09/23 04:50:59;;;;;;;1.10;0.70;;;24.90;78.50;;;;;;5094979;28;20447;-87
2023/09/23 04:53:27;;;;;;;1.10;1.00;;;24.90;78.60;;;;;;5094681;28;20440;-87
2023/09/23 04:55:54;;;;;;;1.13;1.00;;;24.90;78.70;;;;;;5094654;28;20790;-87
2023/09/23 04:58:21;;;;;;;1.20;0.80;;;24.90;78.60;;;;;;5094626;28;20530;-87
2023/09/23 05:00:48;;;;;;;1.10;0.80;;;24.90;78.70;;;;;;5094479;28;20439;-87
2023/09/23 05:03:15;;;;;;;1.20;0.90;;;24.90;78.60;;;;;;5094716;28;20475;-87
2023/09/23 05:05:41;;;;;;;1.23;0.90;;;24.90;79.50;;;;;;5094592;28;20625;-87
2023/09/23 05:08:10;;;;;;;1.23;1.00;;;24.90;78.60;;;;;;5094410;28;20522;-87
2023/09/23 05:10:39;;;;;;;1.10;0.90;;;24.90;78.70;;;;;;5094451;28;20463;-87
2023/09/23 05:13:07;;;;;;;1.10;1.00;;;24.90;78.40;;;;;;5094312;28;20467;-87
2023/09/23 05:15:34;;;;;;;1.10;1.00;;;24.90;78.50;;;;;;5094290;28;20917;-87
2023/09/23 05:18:01;;;;;;;1.30;0.80;;;24.90;78.60;;;;;;5094228;28;20797;-87
2023/09/23 05:20:28;;;;;;;1.10;0.90;;;24.90;78.40;;;;;;5094181;28;20459;-87
2023/09/23 05:22:55;;;;;;;1.50;0.90;;;24.90;78.40;;;;;;5094202;28;20442;-87
2023/09/23 05:25:24;;;;;;;1.77;0.90;;;24.90;78.50;;;;;;5094124;28;20948;-87
2023/09/23 05:27:53;;;;;;;1.00;0.87;;;24.90;78.50;;;;;;5094085;28;20439;-87
2023/09/23 05:30:21;;;;;;;1.10;0.80;;;24.80;78.50;;;;;;5094009;28;20527;-87
2023/09/23 05:32:48;;;;;;;1.00;0.70;;;24.90;78.60;;;;;;5093900;28;20460;-87
2023/09/23 05:35:15;;;;;;;1.00;0.80;;;24.80;78.30;;;;;;5094134;28;20436;-87
2023/09/23 05:37:43;;;;;;;1.00;0.80;;;24.90;78.60;;;;;;5093809;28;20527;-87
2023/09/23 05:40:22;;;;;;;1.10;0.97;;;24.90;78.40;;;;;;5093731;28;20427;-87
2023/09/23 05:42:51;;;;;;;1.17;0.90;;;24.90;78.50;;;;;;5093840;28;20451;-87
2023/09/23 05:45:18;;;;;;;1.20;0.90;;;24.80;78.40;;;;;;5093780;28;20435;-87
2023/09/23 05:47:46;;;;;;;1.10;0.90;;;24.90;78.50;;;;;;5093787;28;20435;-86
2023/09/23 05:50:13;;;;;;;1.10;0.80;;;24.90;78.50;;;;;;5093254;28;20940;-86
2023/09/23 05:52:40;;;;;;;1.20;0.90;;;24.80;78.40;;;;;;5093623;28;20534;-87
2023/09/23 05:55:08;;;;;;;1.10;0.90;;;24.80;78.40;;;;;;5093670;28;20478;-87
2023/09/23 05:57:35;;;;;;;1.13;1.00;;;24.80;79.20;;;;;;5093569;28;20440;-87
2023/09/23 06:00:05;;;;;;;1.00;0.90;;;24.80;78.40;;;;;;5093716;28;20435;-87
2023/09/23 06:02:32;;;;;;;1.10;0.90;;;24.80;78.40;;;;;;5093472;28;20455;-87
2023/09/23 06:05:01;;;;;;;1.00;0.77;;;24.80;78.40;;;;;;5093406;28;20981;-87
2023/09/23 06:07:28;;;;;;;2.07;0.70;;;24.80;78.40;;;;;;5093554;28;20527;-87
2023/09/23 06:09:55;;;;;;;1.00;0.80;;;24.80;78.40;;;;;;5093484;28;20492;-87
2023/09/23 06:12:22;;;;;;;1.20;0.90;;;24.90;78.40;;;;;;5093381;28;20442;-87
2023/09/23 06:14:49;;;;;;;1.10;0.90;;;24.80;78.30;;;;;;5093406;28;20518;-87
2023/09/23 06:17:17;;;;;;;1.10;0.80;;;24.80;78.40;;;;;;5093196;28;20451;-87
2023/09/23 06:19:44;;;;;;;1.10;0.80;;;24.80;78.30;;;;;;5093217;28;20479;-87
2023/09/23 06:22:11;;;;;;;1.07;0.90;;;24.80;78.30;;;;;;5093276;28;20807;-87
2023/09/23 06:24:38;;;;;;;1.20;0.80;;;24.80;78.30;;;;;;5093145;28;20484;-87
2023/09/23 06:27:04;;;;;;;1.10;0.90;;;24.80;78.20;;;;;;5093203;28;20518;-87
2023/09/23 06:29:32;;;;;;;2.23;0.90;;;24.80;78.20;;;;;;5093389;28;20443;-87
2023/09/23 06:31:58;;;;;;;1.23;0.93;;;24.80;78.30;;;;;;5093128;28;20456;-87
2023/09/23 06:34:27;;;;;;;1.20;0.80;;;24.80;78.40;;;;;;5093247;28;21010;-87
2023/09/23 06:36:53;;;;;;;1.00;0.80;;;24.80;78.30;;;;;;5092977;28;20527;-87
2023/09/23 06:39:23;;;;;;;1.30;1.10;;;24.80;78.20;;;;;;5093186;28;20522;-87
2023/09/23 06:41:50;;;;;;;1.10;0.90;;;24.80;79.20;;;;;;5093546;28;20518;-87
2023/09/23 06:44:17;;;;;;;1.10;0.90;;;24.80;78.20;;;;;;5093051;28;20489;-87
2023/09/23 06:46:44;;;;;;;1.10;0.70;;;24.80;78.20;;;;;;5093101;28;20427;-87
2023/09/23 06:49:11;;;;;;;1.00;0.80;;;24.80;78.20;;;;;;5093016;28;20436;-87
2023/09/23 06:51:40;;;;;;;1.10;0.90;;;24.80;78.20;;;;;;5092983;28;20518;-87
2023/09/23 06:54:07;;;;;;;1.97;1.00;;;24.80;78.20;;;;;;5092991;28;20442;-86
2023/09/23 06:56:36;;;;;;;1.20;1.00;;;24.80;78.10;;;;;;5092983;28;20435;-87
2023/09/23 06:59:03;;;;;;;1.33;1.00;;;24.80;78.20;;;;;;5092961;28;20444;-86
2023/09/23 07:01:30;;;;;;;1.53;1.00;;;24.80;78.20;;;;;;5093776;28;20456;-87
2023/09/23 07:03:56;;;;;;;1.00;0.70;;;24.80;78.20;;;;;;5096808;28;20574;-87
2023/09/23 07:06:23;;;;;;;1.10;0.90;;;24.80;78.20;;;;;;5096869;28;20431;-86
2023/09/23 07:08:51;;;;;;;1.23;0.80;;;24.80;78.20;;;;;;5096783;28;21020;-87
2023/09/23 07:11:18;;;;;;;1.30;1.00;;;24.80;78.10;;;;;;5096710;28;20866;-87
2023/09/23 07:13:46;;;;;;;1.40;1.10;;;24.80;78.10;;;;;;5096766;28;20518;-86
2023/09/23 07:16:14;;;;;;;1.20;0.97;;;24.80;78.20;;;;;;5096500;28;20446;-87
2023/09/23 07:18:42;;;;;;;1.30;0.97;;;24.80;78.10;;;;;;5096434;28;21153;-87
2023/09/23 07:21:09;;;;;;;1.10;0.90;;;24.80;78.00;;;;;;5096523;28;20435;-87
2023/09/23 07:23:36;;;;;;;1.30;0.80;;;24.80;78.10;;;;;;5096569;28;20497;-87
2023/09/23 07:26:04;;;;;;;1.20;1.07;;;24.80;78.10;;;;;;5096440;28;20515;-87
2023/09/23 07:28:31;;;;;;;1.10;0.80;;;24.80;78.00;;;;;;5096272;28;20435;-87
2023/09/23 07:30:58;;;;;;;1.20;0.90;;;24.80;78.10;;;;;;5096267;28;20538;-87
2023/09/23 07:33:25;;;;;;;1.10;0.90;;;24.80;78.10;;;;;;5096334;28;20427;-87
2023/09/23 07:35:52;;;;;;;1.10;0.97;;;24.80;78.10;;;;;;5096213;28;20433;-86
2023/09/23 07:38:18;;;;;;;1.30;1.00;;;24.80;78.10;;;;;;5096167;28;20462;-86
2023/09/23 07:40:45;;;;;;;1.30;1.10;;;24.80;78.10;;;;;;5096195;28;20428;-87
2023/09/23 07:43:14;;;;;;;1.10;0.93;;;24.80;78.10;;;;;;5096010;28;20439;-87
2023/09/23 07:45:40;;;;;;;1.27;0.87;;;24.80;78.00;;;;;;5096006;28;20570;-87
2023/09/23 07:48:08;;;;;;;1.53;1.00;;;24.80;78.10;;;;;;5096047;28;20473;-87
2023/09/23 07:50:35;;;;;;;1.10;0.80;;;24.80;78.00;;;;;;5096005;28;20825;-87
2023/09/23 07:53:02;;;;;;;1.10;0.97;;;24.80;78.10;;;;;;5095940;28;20441;-87
2023/09/23 07:55:29;;;;;;;1.10;0.80;;;24.80;78.10;;;;;;5095926;28;20444;-87
2023/09/23 07:57:56;;;;;;;1.40;0.90;;;24.80;78.10;;;;;;5095691;28;20444;-87
2023/09/23 08:00:25;;;;;;;1.30;1.10;;;24.80;78.00;;;;;;5095830;28;20435;-87
2023/09/23 08:02:52;;;;;;;1.10;0.77;;;24.80;77.90;;;;;;5095791;28;20438;-87
2023/09/23 08:05:23;;;;;;;1.40;1.00;;;24.80;77.90;;;;;;5095679;28;20487;-87
2023/09/23 08:07:50;;;;;;;1.47;1.00;;;24.90;78.20;;;;;;5095635;28;20440;-87
2023/09/23 08:10:17;;;;;;;1.10;0.80;;;24.80;78.00;;;;;;5095592;28;20985;-87
2023/09/23 08:12:44;;;;;;;1.10;0.90;;;24.80;77.90;;;;;;5095144;28;20923;-87
2023/09/23 08:15:12;;;;;;;1.20;0.90;;;24.80;78.10;;;;;;5095574;28;20937;-87
2023/09/23 08:17:40;;;;;;;1.20;0.90;;;24.80;77.80;;;;;;5095330;28;20439;-87
2023/09/23 08:20:17;;;;;;;1.23;0.80;;;24.80;78.00;;;;;;5095283;28;20558;-87
2023/09/23 08:22:44;;;;;;;1.10;0.90;;;24.90;78.10;;;;;;5095397;28;20930;-87
2023/09/23 08:25:12;;;;;;;1.10;1.00;;;24.80;78.00;;;;;;5095279;28;20986;-87
2023/09/23 08:27:38;;;;;;;1.10;0.97;;;24.90;78.10;;;;;;5095221;28;20435;-87
2023/09/23 08:30:07;;;;;;;1.17;0.90;;;24.80;78.00;;;;;;5095270;28;20922;-87
2023/09/23 08:32:34;;;;;;;1.27;1.00;;;24.80;77.90;;;;;;5095133;28;20455;-87
2023/09/23 08:35:02;;;;;;;1.03;0.93;;;24.90;78.00;;;;;;5095283;28;20438;-87
2023/09/23 08:37:29;;;;;;;1.13;0.93;;;24.90;77.90;;;;;;5095146;28;20436;-87
2023/09/23 08:39:56;;;;;;;1.10;1.00;;;24.90;78.00;;;;;;5095169;28;20431;-87
2023/09/23 08:42:24;;;;;;;1.20;0.90;;;24.90;78.00;;;;;;5095113;28;20438;-87
2023/09/23 08:44:52;;;;;;;2.03;0.80;;;24.90;77.90;;;;;;5094897;28;20493;-87
2023/09/23 08:47:20;;;;;;;1.10;1.00;;;24.90;78.00;;;;;;5094821;28;20435;-87
2023/09/23 08:49:49;;;;;;;1.30;1.10;;;24.90;78.00;;;;;;5094910;28;20475;-87
2023/09/23 08:52:18;;;;;;;1.07;0.90;;;24.90;78.00;;;;;;5094815;28;20918;-87
2023/09/23 08:54:50;;;;;;;1.10;1.00;;;24.90;78.00;;;;;;5094784;28;20424;-87
2023/09/23 08:57:17;;;;;;;1.10;0.90;;;24.90;78.00;;;;;;5094607;28;20435;-87
2023/09/23 08:59:44;;;;;;;1.63;0.93;;;24.90;78.20;;;;;;5094640;28;20432;-87
2023/09/23 09:02:16;;;;;;;1.13;0.87;;;24.90;78.00;;;;;;5094520;28;20458;-87
2023/09/23 09:04:43;;;;;;;1.10;0.90;;;24.90;78.10;;;;;;5094505;28;20828;-87
2023/09/23 09:07:10;;;;;;;1.20;0.87;;;24.90;78.10;;;;;;5094569;28;20435;-87
2023/09/23 09:09:39;;;;;;;1.20;1.00;;;24.90;78.20;;;;;;5094614;28;20438;-87
2023/09/23 09:12:07;;;;;;;1.67;1.07;;;25.00;78.30;;;;;;5094387;28;20533;-87
2023/09/23 09:14:34;;;;;;;1.10;1.00;;;24.90;78.20;;;;;;5094319;28;20439;-87
2023/09/23 09:17:01;;;;;;;1.20;1.00;;;24.90;78.30;;;;;;5094177;28;20482;-87
2023/09/23 09:19:28;;;;;;;1.20;1.00;;;25.00;78.50;;;;;;5094084;28;20475;-87
2023/09/23 09:21:57;;;;;;;1.40;1.00;;;25.00;78.40;;;;;;5094309;28;20526;-87
2023/09/23 09:24:25;;;;;;;1.30;0.80;;;25.00;78.30;;;;;;5093583;28;20475;-87
2023/09/23 09:26:54;;;;;;;1.10;0.90;;;25.00;78.30;;;;;;5094131;28;20939;-87
2023/09/23 09:29:21;;;;;;;1.10;0.90;;;25.00;78.40;;;;;;5094220;28;20450;-87
2023/09/23 09:31:51;;;;;;;1.13;1.03;;;25.00;78.30;;;;;;5094003;28;20470;-87
2023/09/23 09:34:24;;;;;;;1.30;1.03;;;25.00;78.40;;;;;;5093963;28;20985;-87
2023/09/23 09:36:55;;;;;;;1.60;1.10;;;25.00;78.50;;;;;;5093890;28;20437;-87
2023/09/23 09:39:26;;;;;;;1.20;0.90;;;25.00;78.60;;;;;;5094019;28;20439;-87
2023/09/23 09:41:57;;;;;;;1.10;0.90;;;25.00;78.70;;;;;;5093976;28;20442;-87
2023/09/23 09:44:28;;;;;;;1.30;1.20;;;25.10;78.80;;;;;;5093872;28;20522;-87
2023/09/23 09:46:56;;;;;;;1.20;0.90;;;25.10;78.80;;;;;;5093768;28;20443;-87
2023/09/23 09:49:24;;;;;;;1.20;1.10;;;25.20;78.80;;;;;;5093864;28;20440;-87
2023/09/23 09:51:51;;;;;;;1.20;1.03;;;25.20;78.80;;;;;;5093669;28;20948;-87
2023/09/23 09:54:20;;;;;;;1.10;0.90;;;25.20;78.70;;;;;;5093782;28;20464;-87
2023/09/23 09:56:49;;;;;;;1.20;0.93;;;25.30;78.80;;;;;;5093394;28;20523;-87
2023/09/23 09:59:26;;;;;;;1.10;0.80;;;25.40;78.80;;;;;;5093577;28;20508;-87
2023/09/23 10:01:56;;;;;;;1.30;1.07;;;25.40;78.60;;;;;;5093684;28;20808;-87
2023/09/23 10:04:26;;;;;;;1.70;1.00;;;25.40;78.50;;;;;;5093623;28;20489;-87
2023/09/23 10:06:55;;;;;;;1.00;0.87;;;25.40;78.50;;;;;;5093435;28;20443;-87
2023/09/23 10:09:27;;;;;;;1.20;1.00;;;25.40;78.50;;;;;;5093459;28;20432;-87
2023/09/23 10:11:55;;;;;;;1.10;0.90;;;25.50;78.60;;;;;;5093408;28;20535;-87
2023/09/23 10:14:24;;;;;;;1.47;0.93;;;25.50;78.50;;;;;;5093494;28;20443;-87
2023/09/23 10:16:52;;;;;;;1.20;0.97;;;25.50;78.50;;;;;;5093271;28;20518;-87
2023/09/23 10:19:29;;;;;;;1.60;1.07;;;25.50;78.50;;;;;;5093129;28;20467;-87
2023/09/23 10:22:08;;;;;;;1.43;0.83;;;25.60;78.60;;;;;;5093382;28;20446;-87
2023/09/23 10:24:35;;;;;;;1.20;1.00;;;25.60;78.60;;;;;;5093229;28;20453;-87
2023/09/23 10:27:05;;;;;;;1.10;0.80;;;25.60;78.60;;;;;;5093279;28;20540;-87
2023/09/23 10:29:45;;;;;;;1.10;1.00;;;25.60;78.70;;;;;;5093244;28;20842;-87
2023/09/23 10:32:14;;;;;;;1.20;1.10;;;25.60;78.70;;;;;;5093259;28;20448;-87
2023/09/23 10:34:46;;;;;;;1.10;0.90;;;25.60;78.70;;;;;;5093435;28;20861;-87
2023/09/23 10:37:15;;;;;;;1.00;0.70;;;25.70;78.80;;;;;;5097248;28;20489;-87
2023/09/23 10:39:44;;;;;;;1.00;0.70;;;25.70;78.70;;;;;;5097475;28;20497;-87
2023/09/23 10:42:14;;;;;;;1.10;0.90;;;25.70;78.60;;;;;;5097405;28;20523;-86
2023/09/23 10:44:41;;;;;;;1.10;0.80;;;25.70;78.50;;;;;;5097186;28;20446;-87
2023/09/23 10:47:09;;;;;;;1.40;0.80;;;25.70;78.60;;;;;;5097256;28;20519;-87
2023/09/23 10:49:36;;;;;;;1.03;0.80;;;25.70;79.50;;;;;;5097102;28;20442;-87
2023/09/23 10:52:03;;;;;;;1.10;0.90;;;25.70;79.50;;;;;;5097201;28;20467;-87
2023/09/23 10:54:30;;;;;;;1.20;0.90;;;25.70;78.70;;;;;;5097066;28;20432;-87
2023/09/23 10:56:58;;;;;;;1.20;1.00;;;25.70;78.60;;;;;;5096969;28;20427;-87
2023/09/23 10:59:25;;;;;;;1.90;0.87;;;25.70;79.50;;;;;;5096916;28;20439;-87
2023/09/23 11:01:55;;;;;;;1.10;0.90;;;25.70;78.70;;;;;;5096933;28;20451;-87
2023/09/23 11:04:24;;;;;;;1.73;0.90;;;25.70;78.70;;;;;;5096924;28;20851;-87
2023/09/23 11:06:51;;;;;;;1.50;1.00;;;25.70;78.80;;;;;;5096694;28;20483;-87
2023/09/23 11:09:20;;;;;;;1.00;0.80;;;25.80;78.90;;;;;;5096926;28;20768;-87
2023/09/23 11:11:47;;;;;;;1.10;0.80;;;25.80;78.80;;;;;;5096656;28;20459;-87
2023/09/23 11:14:14;;;;;;;1.03;0.90;;;25.80;78.80;;;;;;5096854;28;20496;-87
2023/09/23 11:16:43;;;;;;;1.17;1.00;;;25.80;78.80;;;;;;5096496;28;20439;-87
2023/09/23 11:19:10;;;;;;;1.47;1.03;;;25.80;78.80;;;;;;5096434;28;20463;-87
2023/09/23 11:21:44;;;;;;;1.07;0.90;;;25.80;78.80;;;;;;5096598;28;20774;-87
2023/09/23 11:24:11;;;;;;;1.30;1.20;;;25.80;78.80;;;;;;5096524;28;20435;-87
2023/09/23 11:26:40;;;;;;;1.10;0.80;;;25.80;78.70;;;;;;5096480;28;20493;-87
2023/09/23 11:29:07;;;;;;;1.53;0.90;;;25.90;78.80;;;;;;5096353;28;20845;-87
2023/09/23 11:31:34;;;;;;;1.00;0.77;;;25.80;78.70;;;;;;5096305;28;20897;-87
2023/09/23 11:34:01;;;;;;;1.77;0.90;;;25.80;78.70;;;;;;5096439;28;20435;-87
2023/09/23 11:36:28;;;;;;;1.40;1.00;;;25.80;78.60;;;;;;5096086;28;20538;-87
2023/09/23 11:38:56;;;;;;;1.70;1.00;;;25.80;78.70;;;;;;5096186;28;20489;-87
2023/09/23 11:41:23;;;;;;;1.10;0.80;;;25.80;78.70;;;;;;5096308;28;20530;-87
2023/09/23 11:43:50;;;;;;;1.10;1.00;;;25.80;78.80;;;;;;5096195;28;20467;-87
2023/09/23 11:46:19;;;;;;;1.10;0.90;;;25.80;78.80;;;;;;5096074;28;20482;-87
2023/09/23 11:48:48;;;;;;;1.20;1.00;;;25.80;78.80;;;;;;5095488;28;20518;-87
2023/09/23 11:51:17;;;;;;;1.97;0.90;;;25.80;78.80;;;;;;5096099;28;20497;-87
2023/09/23 11:53:44;;;;;;;1.13;1.00;;;25.80;78.80;;;;;;5095911;28;20438;-87
2023/09/23 11:56:14;;;;;;;1.10;0.90;;;25.90;78.90;;;;;;5095878;28;20518;-87
2023/09/23 11:58:41;;;;;;;1.17;0.87;;;25.90;78.90;;;;;;5095756;28;20807;-87
2023/09/23 12:01:08;;;;;;;1.00;0.77;;;25.90;78.80;;;;;;5095703;28;20487;-87
2023/09/23 12:03:35;;;;;;;1.30;1.00;;;25.90;78.80;;;;;;5095844;28;20439;-87
2023/09/23 12:06:02;;;;;;;1.10;0.90;;;25.90;79.60;;;;;;5095745;28;21001;-87
2023/09/23 12:08:29;;;;;;;1.10;1.00;;;26.00;78.90;;;;;;5095641;28;20467;-87
2023/09/23 12:10:56;;;;;;;1.10;0.90;;;26.00;78.80;;;;;;5095535;28;20438;-87
2023/09/23 12:13:25;;;;;;;1.10;0.90;;;26.00;78.80;;;;;;5095726;28;20851;-87
2023/09/23 12:15:54;;;;;;;1.10;0.90;;;26.00;78.80;;;;;;5095439;28;20435;-87
2023/09/23 12:18:21;;;;;;;1.20;1.03;;;26.00;78.80;;;;;;5095313;28;20440;-87
2023/09/23 12:20:48;;;;;;;1.13;0.90;;;26.00;78.70;;;;;;5095461;28;20474;-87
2023/09/23 12:23:15;;;;;;;1.20;1.03;;;25.90;78.70;;;;;;5095564;28;20486;-87
2023/09/23 12:25:43;;;;;;;1.20;0.90;;;25.90;78.80;;;;;;5095338;28;20479;-87
2023/09/23 12:28:09;;;;;;;1.77;1.17;;;25.90;78.80;;;;;;5095239;28;20454;-87
2023/09/23 12:30:38;;;;;;;1.20;0.90;;;25.90;78.90;;;;;;5095206;28;20498;-87
2023/09/23 12:33:05;;;;;;;1.10;0.80;;;25.90;78.90;;;;;;5095225;28;20439;-87
2023/09/23 12:35:33;;;;;;;1.10;0.80;;;25.90;78.90;;;;;;5095228;28;20815;-87
2023/09/23 12:38:00;;;;;;;1.00;0.87;;;25.90;78.90;;;;;;5094977;28;20435;-87
2023/09/23 12:40:27;;;;;;;1.20;0.90;;;25.90;78.80;;;;;;5095085;28;20430;-87
2023/09/23 12:42:54;;;;;;;1.10;0.80;;;25.90;78.80;;;;;;5095118;28;20446;-87
2023/09/23 12:45:22;;;;;;;1.00;0.73;;;25.80;78.80;;;;;;5094870;28;20522;-87
2023/09/23 12:47:51;;;;;;;1.43;1.10;;;25.80;78.80;;;;;;5094951;28;20864;-87
2023/09/23 12:50:18;;;;;;;2.27;0.90;;;25.90;78.80;;;;;;5094982;28;20436;-87
2023/09/23 12:52:44;;;;;;;1.10;0.90;;;25.80;78.70;;;;;;5094827;28;20486;-87